sensor_id;sensor_type;location;lat;lon;timestamp;pressure;altitude;pressure_sealevel;temperature;humidity
75886;BME280;64561;44.018;10.144;2023-12-20T00:01:08;101877.84;;;8.29;100.00
75886;BME280;64561;44.018;10.144;2023-12-20T00:03:36;101866.94;;;8.31;100.00
75886;BME280;64561;44.018;10.144;2023-12-20T00:06:09;101855.88;;;8.31;100.00
75886;BME280;64561;44.018;10.144;2023-12-20T00:08:37;101861.50;;;8.41;100.00
75886;BME280;64561;44.018;10.144;2023-12-20T00:11:04;101865.03;;;8.43;100.00
75886;BME280;64561;44.018;10.144;2023-12-20T00:13:31;101869.25;;;8.43;100.00
75886;BME280;64561;44.018;10.144;2023-12-20T00:15:59;101864.06;;;8.41;100.00
75886;BME280;64561;44.018;10.144;2023-12-20T00:18:26;101862.38;;;8.42;100.00
75886;BME280;64561;44.018;10.144;2023-12-20T00:20:53;101867.56;;;8.43;100.00
75886;BME280;64561;44.018;10.144;2023-12-20T00:23:21;101864.03;;;8.58;100.00
75886;BME280;64561;44.018;10.144;2023-12-20T00:25:50;101862.97;;;8.54;100.00
75886;BME280;64561;44.018;10.144;2023-12-20T00:28:17;101858.69;;;8.53;100.00
75886;BME280;64561;44.018;10.144;2023-12-20T00:30:44;101845.34;;;8.41;100.00
75886;BME280;64561;44.018;10.144;2023-12-20T00:33:14;101853.09;;;8.42;100.00
75886;BME280;64561;44.018;10.144;2023-12-20T00:35:41;101850.25;;;8.38;100.00
75886;BME280;64561;44.018;10.144;2023-12-20T00:38:09;101850.09;;;8.35;100.00
75886;BME280;64561;44.018;10.144;2023-12-20T00:40:37;101841.19;;;8.27;100.00
75886;BME280;64561;44.018;10.144;2023-12-20T00:43:04;101838.75;;;8.28;100.00
75886;BME280;64561;44.018;10.144;2023-12-20T00:45:31;101843.13;;;8.31;100.00
75886;BME280;64561;44.018;10.144;2023-12-20T00:47:58;101826.72;;;8.25;100.00
75886;BME280;64561;44.018;10.144;2023-12-20T00:50:26;101824.66;;;8.18;100.00
75886;BME280;64561;44.018;10.144;2023-12-20T00:52:56;101823.25;;;8.07;100.00
75886;BME280;64561;44.018;10.144;2023-12-20T00:55:24;101819.75;;;8.05;100.00
75886;BME280;64561;44.018;10.144;2023-12-20T00:57:51;101823.88;;;8.03;100.00
75886;BME280;64561;44.018;10.144;2023-12-20T01:00:20;101816.00;;;7.98;100.00
75886;BME280;64561;44.018;10.144;2023-12-20T01:02:48;101807.41;;;7.96;100.00
75886;BME280;64561;44.018;10.144;2023-12-20T01:05:18;101792.91;;;7.95;100.00
75886;BME280;64561;44.018;10.144;2023-12-20T01:07:46;101792.53;;;7.88;100.00
75886;BME280;64561;44.018;10.144;2023-12-20T01:10:14;101794.00;;;7.83;100.00
75886;BME280;64561;44.018;10.144;2023-12-20T01:12:41;101791.28;;;7.79;100.00
75886;BME280;64561;44.018;10.144;2023-12-20T01:15:09;101787.63;;;7.74;100.00
75886;BME280;64561;44.018;10.144;2023-12-20T01:17:37;101780.94;;;7.60;100.00
75886;BME280;64561;44.018;10.144;2023-12-20T01:20:04;101783.47;;;7.60;100.00
75886;BME280;64561;44.018;10.144;2023-12-20T01:22:33;101766.22;;;7.54;100.00
75886;BME280;64561;44.018;10.144;2023-12-20T01:25:03;101777.13;;;7.68;100.00
75886;BME280;64561;44.018;10.144;2023-12-20T01:27:30;101779.81;;;7.71;100.00
75886;BME280;64561;44.018;10.144;2023-12-20T01:29:58;101779.88;;;7.73;100.00
75886;BME280;64561;44.018;10.144;2023-12-20T01:32:25;101771.47;;;7.74;100.00
75886;BME280;64561;44.018;10.144;2023-12-20T01:34:52;101764.75;;;7.76;100.00
75886;BME280;64561;44.018;10.144;2023-12-20T01:37:20;101766.88;;;7.85;100.00
75886;BME280;64561;44.018;10.144;2023-12-20T01:39:47;101767.44;;;7.79;100.00
75886;BME280;64561;44.018;10.144;2023-12-20T01:42:15;101766.44;;;7.75;100.00
75886;BME280;64561;44.018;10.144;2023-12-20T01:44:42;101756.91;;;7.71;100.00
75886;BME280;64561;44.018;10.144;2023-12-20T01:47:10;101760.25;;;7.70;100.00
75886;BME280;64561;44.018;10.144;2023-12-20T01:49:37;101755.78;;;7.66;100.00
75886;BME280;64561;44.018;10.144;2023-12-20T01:52:05;101763.66;;;7.71;100.00
75886;BME280;64561;44.018;10.144;2023-12-20T01:54:37;101755.47;;;7.60;100.00
75886;BME280;64561;44.018;10.144;2023-12-20T01:57:06;101743.28;;;7.54;100.00
75886;BME280;64561;44.018;10.144;2023-12-20T01:59:34;101750.06;;;7.54;100.00
75886;BME280;64561;44.018;10.144;2023-12-20T02:02:03;101741.25;;;7.47;100.00
75886;BME280;64561;44.018;10.144;2023-12-20T02:04:31;101733.19;;;7.40;100.00
75886;BME280;64561;44.018;10.144;2023-12-20T02:06:59;101725.41;;;7.37;100.00
75886;BME280;64561;44.018;10.144;2023-12-20T02:09:27;101732.72;;;7.47;100.00
75886;BME280;64561;44.018;10.144;2023-12-20T02:11:54;101728.41;;;7.46;100.00
75886;BME280;64561;44.018;10.144;2023-12-20T02:14:22;101715.22;;;7.37;100.00
75886;BME280;64561;44.018;10.144;2023-12-20T02:16:49;101721.59;;;7.45;100.00
75886;BME280;64561;44.018;10.144;2023-12-20T02:19:17;101716.81;;;7.51;100.00
75886;BME280;64561;44.018;10.144;2023-12-20T02:21:44;101708.19;;;7.49;100.00
75886;BME280;64561;44.018;10.144;2023-12-20T02:24:12;101706.56;;;7.49;100.00
75886;BME280;64561;44.018;10.144;2023-12-20T02:26:40;101699.28;;;7.57;100.00
75886;BME280;64561;44.018;10.144;2023-12-20T02:29:12;101695.06;;;7.57;100.00
75886;BME280;64561;44.018;10.144;2023-12-20T02:31:39;101698.56;;;7.60;100.00
75886;BME280;64561;44.018;10.144;2023-12-20T02:34:06;101693.88;;;7.51;100.00
75886;BME280;64561;44.018;10.144;2023-12-20T02:36:34;101682.44;;;7.43;100.00
75886;BME280;64561;44.018;10.144;2023-12-20T02:39:01;101682.06;;;7.35;100.00
75886;BME280;64561;44.018;10.144;2023-12-20T02:41:28;101686.91;;;7.30;100.00
75886;BME280;64561;44.018;10.144;2023-12-20T02:43:55;101688.38;;;7.25;100.00
75886;BME280;64561;44.018;10.144;2023-12-20T02:46:23;101684.13;;;7.26;100.00
75886;BME280;64561;44.018;10.144;2023-12-20T02:48:50;101672.03;;;7.22;100.00
75886;BME280;64561;44.018;10.144;2023-12-20T02:51:17;101679.66;;;7.22;100.00
75886;BME280;64561;44.018;10.144;2023-12-20T02:53:44;101674.81;;;7.26;100.00
75886;BME280;64561;44.018;10.144;2023-12-20T02:56:12;101671.47;;;7.27;100.00
75886;BME280;64561;44.018;10.144;2023-12-20T02:58:39;101678.97;;;7.24;100.00
75886;BME280;64561;44.018;10.144;2023-12-20T03:01:06;101671.81;;;7.17;100.00
75886;BME280;64561;44.018;10.144;2023-12-20T03:03:33;101669.03;;;7.13;100.00
75886;BME280;64561;44.018;10.144;2023-12-20T03:06:00;101676.66;;;7.13;100.00
75886;BME280;64561;44.018;10.144;2023-12-20T03:08:28;101674.28;;;6.99;100.00
75886;BME280;64561;44.018;10.144;2023-12-20T03:10:59;101664.34;;;6.87;100.00
75886;BME280;64561;44.018;10.144;2023-12-20T03:13:26;101662.44;;;6.83;100.00
75886;BME280;64561;44.018;10.144;2023-12-20T03:15:57;101664.03;;;6.81;100.00
75886;BME280;64561;44.018;10.144;2023-12-20T03:18:25;101671.81;;;6.68;100.00
75886;BME280;64561;44.018;10.144;2023-12-20T03:20:52;101667.81;;;6.57;100.00
75886;BME280;64561;44.018;10.144;2023-12-20T03:23:19;101659.34;;;6.41;100.00
75886;BME280;64561;44.018;10.144;2023-12-20T03:25:47;101665.66;;;6.48;100.00
75886;BME280;64561;44.018;10.144;2023-12-20T03:28:15;101657.31;;;6.51;100.00
75886;BME280;64561;44.018;10.144;2023-12-20T03:30:43;101651.25;;;6.49;100.00
75886;BME280;64561;44.018;10.144;2023-12-20T03:33:10;101650.13;;;6.44;100.00
75886;BME280;64561;44.018;10.144;2023-12-20T03:35:37;101643.31;;;6.43;100.00
75886;BME280;64561;44.018;10.144;2023-12-20T03:38:05;101633.13;;;6.43;100.00
75886;BME280;64561;44.018;10.144;2023-12-20T03:40:32;101628.88;;;6.58;100.00
75886;BME280;64561;44.018;10.144;2023-12-20T03:42:59;101623.47;;;6.52;100.00
75886;BME280;64561;44.018;10.144;2023-12-20T03:45:27;101629.25;;;6.49;100.00
75886;BME280;64561;44.018;10.144;2023-12-20T03:47:54;101624.81;;;6.45;100.00
75886;BME280;64561;44.018;10.144;2023-12-20T03:50:23;101628.38;;;6.49;100.00
75886;BME280;64561;44.018;10.144;2023-12-20T03:52:50;101629.63;;;6.40;100.00
75886;BME280;64561;44.018;10.144;2023-12-20T03:55:18;101639.31;;;6.31;100.00
75886;BME280;64561;44.018;10.144;2023-12-20T03:57:45;101640.38;;;6.35;100.00
75886;BME280;64561;44.018;10.144;2023-12-20T04:00:13;101637.88;;;6.36;100.00
75886;BME280;64561;44.018;10.144;2023-12-20T04:02:42;101627.66;;;6.35;100.00
75886;BME280;64561;44.018;10.144;2023-12-20T04:05:09;101612.25;;;6.32;100.00
75886;BME280;64561;44.018;10.144;2023-12-20T04:07:37;101619.13;;;6.34;100.00
75886;BME280;64561;44.018;10.144;2023-12-20T04:10:05;101626.75;;;6.18;100.00
75886;BME280;64561;44.018;10.144;2023-12-20T04:12:33;101615.28;;;6.10;100.00
75886;BME280;64561;44.018;10.144;2023-12-20T04:15:00;101599.31;;;6.12;100.00
75886;BME280;64561;44.018;10.144;2023-12-20T04:17:29;101591.97;;;6.17;100.00
75886;BME280;64561;44.018;10.144;2023-12-20T04:19:57;101584.50;;;6.20;100.00
75886;BME280;64561;44.018;10.144;2023-12-20T04:22:24;101586.56;;;6.11;100.00
75886;BME280;64561;44.018;10.144;2023-12-20T04:24:51;101584.72;;;6.08;100.00
75886;BME280;64561;44.018;10.144;2023-12-20T04:27:19;101582.00;;;5.90;100.00
75886;BME280;64561;44.018;10.144;2023-12-20T04:29:46;101580.06;;;5.86;100.00
75886;BME280;64561;44.018;10.144;2023-12-20T04:32:13;101577.38;;;5.83;100.00
75886;BME280;64561;44.018;10.144;2023-12-20T04:34:40;101566.88;;;5.77;100.00
75886;BME280;64561;44.018;10.144;2023-12-20T04:37:07;101568.97;;;5.84;100.00
75886;BME280;64561;44.018;10.144;2023-12-20T04:39:35;101556.44;;;5.87;100.00
75886;BME280;64561;44.018;10.144;2023-12-20T04:42:02;101559.34;;;5.93;100.00
75886;BME280;64561;44.018;10.144;2023-12-20T04:44:30;101558.19;;;5.88;100.00
75886;BME280;64561;44.018;10.144;2023-12-20T04:46:58;101561.38;;;5.84;100.00
75886;BME280;64561;44.018;10.144;2023-12-20T04:49:25;101556.28;;;5.84;100.00
75886;BME280;64561;44.018;10.144;2023-12-20T04:51:53;101552.47;;;5.92;100.00
75886;BME280;64561;44.018;10.144;2023-12-20T04:54:22;101542.63;;;5.97;100.00
75886;BME280;64561;44.018;10.144;2023-12-20T04:56:49;101535.31;;;6.03;100.00
75886;BME280;64561;44.018;10.144;2023-12-20T04:59:17;101551.03;;;5.96;100.00
75886;BME280;64561;44.018;10.144;2023-12-20T05:01:44;101559.16;;;5.90;100.00
75886;BME280;64561;44.018;10.144;2023-12-20T05:04:12;101564.25;;;5.90;100.00
75886;BME280;64561;44.018;10.144;2023-12-20T05:06:39;101557.56;;;5.92;100.00
75886;BME280;64561;44.018;10.144;2023-12-20T05:09:06;101555.00;;;5.92;100.00
75886;BME280;64561;44.018;10.144;2023-12-20T05:11:33;101559.00;;;5.87;100.00
75886;BME280;64561;44.018;10.144;2023-12-20T05:14:01;101560.50;;;5.84;100.00
75886;BME280;64561;44.018;10.144;2023-12-20T05:16:28;101550.00;;;5.78;100.00
75886;BME280;64561;44.018;10.144;2023-12-20T05:18:56;101551.59;;;5.92;100.00
75886;BME280;64561;44.018;10.144;2023-12-20T05:21:23;101554.59;;;6.00;100.00
75886;BME280;64561;44.018;10.144;2023-12-20T05:23:50;101552.63;;;6.10;100.00
75886;BME280;64561;44.018;10.144;2023-12-20T05:26:17;101539.22;;;6.13;100.00
75886;BME280;64561;44.018;10.144;2023-12-20T05:28:44;101543.13;;;6.23;100.00
75886;BME280;64561;44.018;10.144;2023-12-20T05:31:13;101538.94;;;6.23;100.00
75886;BME280;64561;44.018;10.144;2023-12-20T05:33:41;101536.56;;;6.26;100.00
75886;BME280;64561;44.018;10.144;2023-12-20T05:36:09;101537.50;;;6.28;100.00
75886;BME280;64561;44.018;10.144;2023-12-20T05:38:38;101530.50;;;6.40;100.00
75886;BME280;64561;44.018;10.144;2023-12-20T05:41:05;101534.41;;;6.50;100.00
75886;BME280;64561;44.018;10.144;2023-12-20T05:43:33;101544.50;;;6.49;100.00
75886;BME280;64561;44.018;10.144;2023-12-20T05:46:00;101552.59;;;6.41;100.00
75886;BME280;64561;44.018;10.144;2023-12-20T05:48:27;101559.66;;;6.31;100.00
75886;BME280;64561;44.018;10.144;2023-12-20T05:50:55;101565.97;;;6.23;100.00
75886;BME280;64561;44.018;10.144;2023-12-20T05:53:22;101568.63;;;6.24;100.00
75886;BME280;64561;44.018;10.144;2023-12-20T05:55:49;101565.75;;;6.34;100.00
75886;BME280;64561;44.018;10.144;2023-12-20T05:58:16;101564.28;;;6.38;100.00
75886;BME280;64561;44.018;10.144;2023-12-20T06:00:43;101569.03;;;6.48;100.00
75886;BME280;64561;44.018;10.144;2023-12-20T06:03:10;101568.25;;;6.49;100.00
75886;BME280;64561;44.018;10.144;2023-12-20T06:05:38;101568.56;;;6.55;100.00
75886;BME280;64561;44.018;10.144;2023-12-20T06:08:05;101563.72;;;6.60;100.00
75886;BME280;64561;44.018;10.144;2023-12-20T06:10:32;101549.88;;;6.55;100.00
75886;BME280;64561;44.018;10.144;2023-12-20T06:13:00;101558.00;;;6.64;100.00
75886;BME280;64561;44.018;10.144;2023-12-20T06:15:28;101555.53;;;6.66;100.00
75886;BME280;64561;44.018;10.144;2023-12-20T06:17:55;101562.63;;;6.71;100.00
75886;BME280;64561;44.018;10.144;2023-12-20T06:20:22;101551.69;;;6.74;100.00
75886;BME280;64561;44.018;10.144;2023-12-20T06:22:49;101544.31;;;6.78;100.00
75886;BME280;64561;44.018;10.144;2023-12-20T06:25:16;101532.78;;;6.85;100.00
75886;BME280;64561;44.018;10.144;2023-12-20T06:27:44;101525.09;;;6.83;100.00
75886;BME280;64561;44.018;10.144;2023-12-20T06:30:12;101513.88;;;6.80;100.00
75886;BME280;64561;44.018;10.144;2023-12-20T06:32:39;101522.84;;;6.73;100.00
75886;BME280;64561;44.018;10.144;2023-12-20T06:35:09;101506.44;;;6.67;100.00
75886;BME280;64561;44.018;10.144;2023-12-20T06:37:36;101497.06;;;6.66;100.00
75886;BME280;64561;44.018;10.144;2023-12-20T06:40:04;101498.75;;;6.65;100.00
75886;BME280;64561;44.018;10.144;2023-12-20T06:42:31;101490.00;;;6.60;100.00
75886;BME280;64561;44.018;10.144;2023-12-20T06:45:09;101484.97;;;6.61;100.00
75886;BME280;64561;44.018;10.144;2023-12-20T06:47:36;101476.56;;;6.62;100.00
75886;BME280;64561;44.018;10.144;2023-12-20T06:50:05;101474.75;;;6.60;100.00
75886;BME280;64561;44.018;10.144;2023-12-20T06:52:32;101465.84;;;6.52;100.00
75886;BME280;64561;44.018;10.144;2023-12-20T06:54:59;101468.38;;;6.52;100.00
75886;BME280;64561;44.018;10.144;2023-12-20T06:57:29;101468.47;;;6.53;100.00
75886;BME280;64561;44.018;10.144;2023-12-20T06:59:56;101454.00;;;6.52;100.00
75886;BME280;64561;44.018;10.144;2023-12-20T07:02:24;101444.06;;;6.57;100.00
75886;BME280;64561;44.018;10.144;2023-12-20T07:04:51;101442.16;;;6.53;100.00
75886;BME280;64561;44.018;10.144;2023-12-20T07:07:19;101444.53;;;6.50;100.00
75886;BME280;64561;44.018;10.144;2023-12-20T07:09:46;101447.09;;;6.50;100.00
75886;BME280;64561;44.018;10.144;2023-12-20T07:12:13;101448.84;;;6.51;100.00
75886;BME280;64561;44.018;10.144;2023-12-20T07:14:40;101444.38;;;6.47;100.00
75886;BME280;64561;44.018;10.144;2023-12-20T07:17:08;101455.47;;;6.47;100.00
75886;BME280;64561;44.018;10.144;2023-12-20T07:19:38;101445.75;;;6.56;100.00
75886;BME280;64561;44.018;10.144;2023-12-20T07:22:06;101439.34;;;6.64;100.00
75886;BME280;64561;44.018;10.144;2023-12-20T07:24:34;101432.13;;;6.72;100.00
75886;BME280;64561;44.018;10.144;2023-12-20T07:27:01;101421.44;;;6.79;100.00
75886;BME280;64561;44.018;10.144;2023-12-20T07:29:29;101428.59;;;6.86;100.00
75886;BME280;64561;44.018;10.144;2023-12-20T07:31:56;101444.28;;;6.96;100.00
75886;BME280;64561;44.018;10.144;2023-12-20T07:34:23;101442.03;;;7.02;100.00
75886;BME280;64561;44.018;10.144;2023-12-20T07:36:51;101441.03;;;6.98;100.00
75886;BME280;64561;44.018;10.144;2023-12-20T07:39:18;101440.13;;;6.98;100.00
75886;BME280;64561;44.018;10.144;2023-12-20T07:41:45;101448.56;;;6.97;100.00
75886;BME280;64561;44.018;10.144;2023-12-20T07:44:12;101451.06;;;6.95;100.00
75886;BME280;64561;44.018;10.144;2023-12-20T07:46:40;101450.31;;;6.98;100.00
75886;BME280;64561;44.018;10.144;2023-12-20T07:49:08;101462.53;;;7.05;100.00
75886;BME280;64561;44.018;10.144;2023-12-20T07:51:35;101458.56;;;7.10;100.00
75886;BME280;64561;44.018;10.144;2023-12-20T07:54:03;101458.47;;;7.08;100.00
75886;BME280;64561;44.018;10.144;2023-12-20T07:56:30;101457.09;;;7.15;100.00
75886;BME280;64561;44.018;10.144;2023-12-20T07:58:58;101465.81;;;7.20;100.00
75886;BME280;64561;44.018;10.144;2023-12-20T08:01:27;101459.72;;;7.17;100.00
75886;BME280;64561;44.018;10.144;2023-12-20T08:03:54;101456.16;;;7.13;100.00
75886;BME280;64561;44.018;10.144;2023-12-20T08:06:25;101450.59;;;7.04;100.00
75886;BME280;64561;44.018;10.144;2023-12-20T08:08:57;101461.03;;;7.08;100.00
75886;BME280;64561;44.018;10.144;2023-12-20T08:11:35;101444.88;;;7.08;100.00
75886;BME280;64561;44.018;10.144;2023-12-20T08:14:02;101446.75;;;7.12;100.00
75886;BME280;64561;44.018;10.144;2023-12-20T08:16:36;101449.25;;;7.10;100.00
75886;BME280;64561;44.018;10.144;2023-12-20T08:19:10;101443.78;;;7.03;100.00
75886;BME280;64561;44.018;10.144;2023-12-20T08:21:49;101450.84;;;7.08;100.00
75886;BME280;64561;44.018;10.144;2023-12-20T08:24:29;101454.50;;;7.14;100.00
75886;BME280;64561;44.018;10.144;2023-12-20T08:27:08;101448.72;;;7.18;100.00
75886;BME280;64561;44.018;10.144;2023-12-20T08:29:37;101439.56;;;7.21;100.00
75886;BME280;64561;44.018;10.144;2023-12-20T08:32:04;101444.03;;;7.25;100.00
75886;BME280;64561;44.018;10.144;2023-12-20T08:34:32;101457.66;;;7.27;100.00
75886;BME280;64561;44.018;10.144;2023-12-20T08:36:59;101462.69;;;7.26;100.00
75886;BME280;64561;44.018;10.144;2023-12-20T08:39:26;101455.06;;;7.26;100.00
75886;BME280;64561;44.018;10.144;2023-12-20T08:41:54;101462.19;;;7.33;100.00
75886;BME280;64561;44.018;10.144;2023-12-20T08:44:21;101454.69;;;7.36;100.00
75886;BME280;64561;44.018;10.144;2023-12-20T08:46:49;101466.78;;;7.40;100.00
75886;BME280;64561;44.018;10.144;2023-12-20T08:49:17;101476.44;;;7.47;100.00
75886;BME280;64561;44.018;10.144;2023-12-20T08:51:44;101468.72;;;7.46;100.00
75886;BME280;64561;44.018;10.144;2023-12-20T08:54:11;101461.16;;;7.47;100.00
75886;BME280;64561;44.018;10.144;2023-12-20T08:56:40;101470.75;;;7.53;100.00
75886;BME280;64561;44.018;10.144;2023-12-20T08:59:07;101467.53;;;7.57;100.00
75886;BME280;64561;44.018;10.144;2023-12-20T09:01:34;101467.78;;;7.62;100.00
75886;BME280;64561;44.018;10.144;2023-12-20T09:04:02;101461.97;;;7.64;100.00
75886;BME280;64561;44.018;10.144;2023-12-20T09:06:29;101459.75;;;7.72;100.00
75886;BME280;64561;44.018;10.144;2023-12-20T09:08:56;101457.41;;;7.76;100.00
75886;BME280;64561;44.018;10.144;2023-12-20T09:11:23;101445.97;;;7.86;100.00
75886;BME280;64561;44.018;10.144;2023-12-20T09:13:52;101441.28;;;7.95;100.00
75886;BME280;64561;44.018;10.144;2023-12-20T09:16:19;101426.97;;;7.99;100.00
75886;BME280;64561;44.018;10.144;2023-12-20T09:18:47;101430.81;;;8.09;100.00
75886;BME280;64561;44.018;10.144;2023-12-20T09:21:14;101432.47;;;8.08;100.00
75886;BME280;64561;44.018;10.144;2023-12-20T09:23:41;101433.56;;;8.13;100.00
75886;BME280;64561;44.018;10.144;2023-12-20T09:26:08;101430.75;;;8.07;100.00
75886;BME280;64561;44.018;10.144;2023-12-20T09:28:38;101435.97;;;8.10;100.00
75886;BME280;64561;44.018;10.144;2023-12-20T09:31:07;101437.72;;;8.11;100.00
75886;BME280;64561;44.018;10.144;2023-12-20T09:33:36;101437.94;;;8.16;100.00
75886;BME280;64561;44.018;10.144;2023-12-20T09:36:04;101437.97;;;8.17;100.00
75886;BME280;64561;44.018;10.144;2023-12-20T09:38:32;101440.66;;;8.20;100.00
75886;BME280;64561;44.018;10.144;2023-12-20T09:41:00;101440.00;;;8.24;100.00
75886;BME280;64561;44.018;10.144;2023-12-20T09:43:30;101448.66;;;8.28;100.00
75886;BME280;64561;44.018;10.144;2023-12-20T09:46:00;101441.75;;;8.25;100.00
75886;BME280;64561;44.018;10.144;2023-12-20T09:48:30;101435.38;;;8.16;100.00
75886;BME280;64561;44.018;10.144;2023-12-20T09:50:58;101437.19;;;8.18;100.00
75886;BME280;64561;44.018;10.144;2023-12-20T09:53:26;101433.81;;;8.19;100.00
75886;BME280;64561;44.018;10.144;2023-12-20T09:55:59;101428.19;;;8.27;100.00
75886;BME280;64561;44.018;10.144;2023-12-20T09:58:30;101426.50;;;8.27;100.00
75886;BME280;64561;44.018;10.144;2023-12-20T10:01:01;101419.88;;;8.31;100.00
75886;BME280;64561;44.018;10.144;2023-12-20T10:03:33;101415.50;;;8.28;100.00
75886;BME280;64561;44.018;10.144;2023-12-20T10:06:01;101409.69;;;8.31;100.00
75886;BME280;64561;44.018;10.144;2023-12-20T10:08:28;101402.16;;;8.34;100.00
75886;BME280;64561;44.018;10.144;2023-12-20T10:10:57;101398.72;;;8.33;100.00
75886;BME280;64561;44.018;10.144;2023-12-20T10:13:29;101393.69;;;8.35;100.00
75886;BME280;64561;44.018;10.144;2023-12-20T10:15:57;101402.38;;;8.38;100.00
75886;BME280;64561;44.018;10.144;2023-12-20T10:18:25;101397.25;;;8.38;100.00
75886;BME280;64561;44.018;10.144;2023-12-20T10:21:06;101396.53;;;8.41;100.00
75886;BME280;64561;44.018;10.144;2023-12-20T10:23:37;101398.25;;;8.42;100.00
75886;BME280;64561;44.018;10.144;2023-12-20T10:26:06;101396.53;;;8.41;100.00
75886;BME280;64561;44.018;10.144;2023-12-20T10:28:34;101394.94;;;8.43;100.00
75886;BME280;64561;44.018;10.144;2023-12-20T10:31:02;101390.81;;;8.46;100.00
75886;BME280;64561;44.018;10.144;2023-12-20T10:33:30;101375.44;;;8.45;100.00
75886;BME280;64561;44.018;10.144;2023-12-20T10:36:00;101374.78;;;8.49;100.00
75886;BME280;64561;44.018;10.144;2023-12-20T10:38:27;101383.59;;;8.57;100.00
75886;BME280;64561;44.018;10.144;2023-12-20T10:40:57;101369.97;;;8.57;100.00
75886;BME280;64561;44.018;10.144;2023-12-20T10:43:28;101375.19;;;8.60;100.00
75886;BME280;64561;44.018;10.144;2023-12-20T10:45:57;101376.25;;;8.65;100.00
75886;BME280;64561;44.018;10.144;2023-12-20T10:48:24;101362.88;;;8.70;100.00
75886;BME280;64561;44.018;10.144;2023-12-20T10:50:57;101353.63;;;8.73;100.00
75886;BME280;64561;44.018;10.144;2023-12-20T10:53:25;101357.94;;;8.75;100.00
75886;BME280;64561;44.018;10.144;2023-12-20T10:55:55;101354.78;;;8.81;100.00
75886;BME280;64561;44.018;10.144;2023-12-20T10:58:24;101350.53;;;8.81;100.00
75886;BME280;64561;44.018;10.144;2023-12-20T11:00:59;101339.72;;;8.87;100.00
75886;BME280;64561;44.018;10.144;2023-12-20T11:03:30;101334.91;;;8.95;100.00
75886;BME280;64561;44.018;10.144;2023-12-20T11:06:05;101333.31;;;8.97;100.00
75886;BME280;64561;44.018;10.144;2023-12-20T11:08:47;101331.50;;;8.94;100.00
75886;BME280;64561;44.018;10.144;2023-12-20T11:14:48;101322.91;;;8.92;100.00
75886;BME280;64561;44.018;10.144;2023-12-20T11:17:16;101326.44;;;8.96;100.00
75886;BME280;64561;44.018;10.144;2023-12-20T11:22:20;101304.00;;;9.09;100.00
75886;BME280;64561;44.018;10.144;2023-12-20T11:24:50;101306.66;;;9.12;100.00
75886;BME280;64561;44.018;10.144;2023-12-20T11:27:18;101303.88;;;9.06;100.00
75886;BME280;64561;44.018;10.144;2023-12-20T11:29:53;101302.13;;;9.05;100.00
75886;BME280;64561;44.018;10.144;2023-12-20T11:34:53;101291.69;;;8.99;100.00
75886;BME280;64561;44.018;10.144;2023-12-20T11:37:21;101289.09;;;8.98;100.00
75886;BME280;64561;44.018;10.144;2023-12-20T11:39:56;101287.28;;;8.95;100.00
75886;BME280;64561;44.018;10.144;2023-12-20T11:42:26;101279.47;;;8.90;100.00
75886;BME280;64561;44.018;10.144;2023-12-20T11:44:55;101284.38;;;8.86;100.00
75886;BME280;64561;44.018;10.144;2023-12-20T11:47:23;101290.56;;;8.91;100.00
75886;BME280;64561;44.018;10.144;2023-12-20T11:49:50;101283.91;;;8.96;100.00
75886;BME280;64561;44.018;10.144;2023-12-20T11:52:19;101284.63;;;8.92;100.00
75886;BME280;64561;44.018;10.144;2023-12-20T11:54:46;101280.38;;;8.92;100.00
75886;BME280;64561;44.018;10.144;2023-12-20T11:57:14;101270.06;;;8.89;100.00
75886;BME280;64561;44.018;10.144;2023-12-20T11:59:42;101265.81;;;8.90;100.00
75886;BME280;64561;44.018;10.144;2023-12-20T12:02:11;101259.84;;;8.89;100.00
75886;BME280;64561;44.018;10.144;2023-12-20T12:04:41;101261.63;;;8.90;100.00
75886;BME280;64561;44.018;10.144;2023-12-20T12:07:09;101255.56;;;8.88;100.00
75886;BME280;64561;44.018;10.144;2023-12-20T12:09:36;101254.81;;;8.91;100.00
75886;BME280;64561;44.018;10.144;2023-12-20T12:12:03;101248.97;;;8.93;100.00
75886;BME280;64561;44.018;10.144;2023-12-20T12:14:31;101243.91;;;8.95;100.00
75886;BME280;64561;44.018;10.144;2023-12-20T12:16:58;101237.97;;;8.96;100.00
75886;BME280;64561;44.018;10.144;2023-12-20T12:19:26;101232.84;;;8.95;100.00
75886;BME280;64561;44.018;10.144;2023-12-20T12:22:14;101244.03;;;8.98;100.00
75886;BME280;64561;44.018;10.144;2023-12-20T12:24:44;101242.09;;;8.92;100.00
75886;BME280;64561;44.018;10.144;2023-12-20T12:27:12;101232.00;;;8.96;100.00
75886;BME280;64561;44.018;10.144;2023-12-20T12:30:00;101226.88;;;8.94;100.00
75886;BME280;64561;44.018;10.144;2023-12-20T12:32:32;101223.38;;;8.92;100.00
75886;BME280;64561;44.018;10.144;2023-12-20T12:35:00;101223.50;;;8.95;100.00
75886;BME280;64561;44.018;10.144;2023-12-20T12:37:30;101211.56;;;8.94;100.00
75886;BME280;64561;44.018;10.144;2023-12-20T12:39:57;101214.16;;;8.96;100.00
75886;BME280;64561;44.018;10.144;2023-12-20T12:42:24;101197.25;;;8.99;100.00
75886;BME280;64561;44.018;10.144;2023-12-20T12:44:55;101196.06;;;9.13;100.00
75886;BME280;64561;44.018;10.144;2023-12-20T12:47:26;101192.13;;;9.22;100.00
75886;BME280;64561;44.018;10.144;2023-12-20T12:49:53;101197.22;;;9.22;100.00
75886;BME280;64561;44.018;10.144;2023-12-20T12:52:21;101199.72;;;9.20;100.00
75886;BME280;64561;44.018;10.144;2023-12-20T12:55:13;101203.31;;;9.25;100.00